BAW25K MKJP-EGLL
Flight info
| Callsign | BAW25K |
|---|---|
| Flight time | N/A |
| Altitude | 33000 |
| Route | AMEKO2 AMEKO DCT VIKRO UL347 GHANN DCT FORST DCT ROSEA DCT PAARR DCT SMTTY DCT AVNEY DCT RENAH DCT CANEE/M085F330 DCT BOREX/M085F350 DCT JIMAC DCT ANVER DCT SOORY DCT 43N050W 46N040W 49N030W 50N020W DCT SOMAX DCT ATSUR DCT GAPLI/N0486F350 DCT SIDDI DCT DAWLY DCT ELRIP DCT OTMET |
| Aircraft | B77W/H-SDE1E2E3FGHIJ2J3J4J5M1RWXY/LB1D1 |
Departure
| Time | 2026-05-07 01:27 |
|---|---|
| Airport | Norman Manley International Airport (MKJP) |
Arrival
| Time | N/A |
|---|---|
| Airport | London Heathrow Airport (EGLL) |
| Time | Latitude | Longitude | Altitude | Speed | Heading |
|---|---|---|---|---|---|
| 2026-05-07 00:59 | 17.93573 | -76.78054 | 18 ft | 0 kts | 102° |
| 2026-05-07 01:14 | 17.93575 | -76.78062 | 18 ft | 2 kts | 103° |
| 2026-05-07 01:14 | 17.93579 | -76.78079 | 19 ft | 2 kts | 107° |
| 2026-05-07 01:14 | 17.93584 | -76.78096 | 20 ft | 2 kts | 113° |
| 2026-05-07 01:14 | 17.93592 | -76.78111 | 21 ft | 2 kts | 126° |
| 2026-05-07 01:15 | 17.93603 | -76.78124 | 23 ft | 2 kts | 158° |
| 2026-05-07 01:15 | 17.93618 | -76.78126 | 21 ft | 1 kts | 198° |
| 2026-05-07 01:15 | 17.93622 | -76.78124 | 21 ft | 0 kts | 201° |
| 2026-05-07 01:19 | 17.93601 | -76.78133 | 22 ft | 10 kts | 201° |
| 2026-05-07 01:19 | 17.93531 | -76.78162 | 19 ft | 5 kts | 216° |
| 2026-05-07 01:19 | 17.93522 | -76.78197 | 19 ft | 6 kts | 274° |
| 2026-05-07 01:19 | 17.93533 | -76.78237 | 19 ft | 6 kts | 286° |
| 2026-05-07 01:20 | 17.93545 | -76.78277 | 19 ft | 6 kts | 288° |
| 2026-05-07 01:20 | 17.93559 | -76.78316 | 19 ft | 6 kts | 291° |
| 2026-05-07 01:20 | 17.93573 | -76.78355 | 18 ft | 6 kts | 291° |
| 2026-05-07 01:20 | 17.93588 | -76.78394 | 18 ft | 6 kts | 291° |
| 2026-05-07 01:21 | 17.93602 | -76.78434 | 18 ft | 6 kts | 291° |
| 2026-05-07 01:21 | 17.93617 | -76.78473 | 18 ft | 6 kts | 291° |
| 2026-05-07 01:21 | 17.93632 | -76.78512 | 18 ft | 6 kts | 291° |
| 2026-05-07 01:21 | 17.93646 | -76.78552 | 18 ft | 6 kts | 291° |
| 2026-05-07 01:22 | 17.93661 | -76.78590 | 18 ft | 6 kts | 291° |
| 2026-05-07 01:22 | 17.93675 | -76.78630 | 18 ft | 6 kts | 291° |
| 2026-05-07 01:22 | 17.93690 | -76.78669 | 18 ft | 6 kts | 291° |
| 2026-05-07 01:22 | 17.93704 | -76.78708 | 18 ft | 6 kts | 291° |
| 2026-05-07 01:23 | 17.93719 | -76.78747 | 18 ft | 6 kts | 292° |
| 2026-05-07 01:23 | 17.93736 | -76.78786 | 18 ft | 6 kts | 294° |
| 2026-05-07 01:23 | 17.93752 | -76.78825 | 18 ft | 6 kts | 294° |
| 2026-05-07 01:23 | 17.93781 | -76.78895 | 18 ft | 14 kts | 293° |
| 2026-05-07 01:24 | 17.93817 | -76.78987 | 19 ft | 14 kts | 291° |
| 2026-05-07 01:24 | 17.93851 | -76.79079 | 18 ft | 14 kts | 291° |
| 2026-05-07 01:24 | 17.93887 | -76.79173 | 18 ft | 14 kts | 292° |
| 2026-05-07 01:24 | 17.93923 | -76.79266 | 19 ft | 14 kts | 292° |
| 2026-05-07 01:25 | 17.93958 | -76.79359 | 18 ft | 14 kts | 292° |
| 2026-05-07 01:25 | 17.93994 | -76.79452 | 18 ft | 14 kts | 292° |
| 2026-05-07 01:25 | 17.94041 | -76.79575 | 18 ft | 20 kts | 292° |
| 2026-05-07 01:25 | 17.94085 | -76.79710 | 18 ft | 20 kts | 284° |
| 2026-05-07 01:26 | 17.94099 | -76.79856 | 17 ft | 21 kts | 259° |
| 2026-05-07 01:26 | 17.94019 | -76.79907 | 17 ft | 15 kts | 156° |
| 2026-05-07 01:26 | 17.93964 | -76.79791 | 18 ft | 34 kts | 111° |
| 2026-05-07 01:26 | 17.93775 | -76.79297 | 19 ft | 113 kts | 112° |
| 2026-05-07 01:27 | 17.93390 | -76.78300 | 45 ft | 176 kts | 113° |
| 2026-05-07 01:27 | 17.92871 | -76.77083 | 638 ft | 185 kts | 117° |
| 2026-05-07 01:27 | 17.92263 | -76.75876 | 1384 ft | 190 kts | 117° |
| 2026-05-07 01:27 | 17.91622 | -76.74618 | 1818 ft | 205 kts | 117° |
| 2026-05-07 01:28 | 17.90902 | -76.73208 | 2002 ft | 230 kts | 117° |
| 2026-05-07 01:28 | 17.90130 | -76.71701 | 2606 ft | 236 kts | 117° |
| 2026-05-07 01:28 | 17.89351 | -76.70176 | 3355 ft | 237 kts | 117° |
| 2026-05-07 01:28 | 17.88578 | -76.68664 | 4014 ft | 241 kts | 116° |
| 2026-05-07 01:29 | 17.87768 | -76.67077 | 4554 ft | 251 kts | 117° |
| 2026-05-07 01:29 | 17.86935 | -76.65446 | 5226 ft | 255 kts | 117° |
| 2026-05-07 01:29 | 17.86095 | -76.63797 | 5977 ft | 257 kts | 117° |
| 2026-05-07 01:29 | 17.85244 | -76.62131 | 6660 ft | 259 kts | 117° |
| 2026-05-07 01:30 | 17.84395 | -76.60468 | 7370 ft | 258 kts | 117° |
| 2026-05-07 01:30 | 17.83578 | -76.58777 | 7969 ft | 259 kts | 109° |
| 2026-05-07 01:30 | 17.83392 | -76.56932 | 8682 ft | 255 kts | 82° |
| 2026-05-07 01:30 | 17.83994 | -76.55157 | 9015 ft | 273 kts | 57° |
| 2026-05-07 01:31 | 17.85340 | -76.53736 | 9554 ft | 281 kts | 35° |
| 2026-05-07 01:31 | 17.87190 | -76.52956 | 9881 ft | 295 kts | 15° |
| 2026-05-07 01:31 | 17.89231 | -76.52489 | 10287 ft | 306 kts | 13° |
| 2026-05-07 01:31 | 17.91393 | -76.52031 | 10461 ft | 328 kts | 13° |
| 2026-05-07 01:32 | 17.93707 | -76.51551 | 10627 ft | 350 kts | 12° |
| 2026-05-07 01:32 | 17.96164 | -76.51034 | 10816 ft | 370 kts | 12° |
| 2026-05-07 01:32 | 17.98735 | -76.50485 | 11242 ft | 381 kts | 12° |
| 2026-05-07 01:32 | 18.01346 | -76.49922 | 11886 ft | 387 kts | 12° |
| 2026-05-07 01:33 | 18.03965 | -76.49350 | 12553 ft | 392 kts | 12° |
| 2026-05-07 01:33 | 18.06645 | -76.48760 | 13277 ft | 395 kts | 12° |
| 2026-05-07 01:33 | 18.09344 | -76.48162 | 14013 ft | 398 kts | 12° |
| 2026-05-07 01:33 | 18.12063 | -76.47558 | 14692 ft | 400 kts | 11° |
| 2026-05-07 01:34 | 18.14797 | -76.46950 | 15336 ft | 403 kts | 11° |
| 2026-05-07 01:34 | 18.17552 | -76.46336 | 15964 ft | 407 kts | 11° |
| 2026-05-07 01:34 | 18.20334 | -76.45716 | 16588 ft | 410 kts | 11° |
| 2026-05-07 01:34 | 18.23133 | -76.45092 | 17240 ft | 412 kts | 11° |
| 2026-05-07 01:35 | 18.25912 | -76.44471 | 17847 ft | 415 kts | 11° |
| 2026-05-07 01:35 | 18.28751 | -76.43838 | 18428 ft | 419 kts | 11° |
| 2026-05-07 01:35 | 18.31610 | -76.43199 | 18949 ft | 421 kts | 11° |
| 2026-05-07 01:35 | 18.34484 | -76.42556 | 19531 ft | 422 kts | 11° |
| 2026-05-07 01:36 | 18.37368 | -76.41912 | 20044 ft | 425 kts | 11° |
| 2026-05-07 01:36 | 18.40274 | -76.41263 | 20541 ft | 428 kts | 12° |
| 2026-05-07 01:36 | 18.43195 | -76.40610 | 21064 ft | 430 kts | 12° |
| 2026-05-07 01:36 | 18.46132 | -76.39953 | 21591 ft | 432 kts | 12° |
| 2026-05-07 01:37 | 18.49038 | -76.39303 | 22096 ft | 434 kts | 12° |
| 2026-05-07 01:37 | 18.51998 | -76.38640 | 22591 ft | 436 kts | 12° |
| 2026-05-07 01:37 | 18.54975 | -76.37973 | 23075 ft | 438 kts | 12° |
| 2026-05-07 01:37 | 18.57966 | -76.37303 | 23555 ft | 441 kts | 12° |
| 2026-05-07 01:38 | 18.60971 | -76.36630 | 23930 ft | 443 kts | 12° |
| 2026-05-07 01:38 | 18.63999 | -76.35951 | 24278 ft | 446 kts | 12° |
| 2026-05-07 01:38 | 18.67038 | -76.35269 | 24637 ft | 449 kts | 12° |
| 2026-05-07 01:38 | 18.70100 | -76.34583 | 24995 ft | 451 kts | 12° |
| 2026-05-07 01:39 | 18.73178 | -76.33892 | 25359 ft | 453 kts | 12° |
| 2026-05-07 01:39 | 18.76229 | -76.33207 | 25699 ft | 456 kts | 12° |
| 2026-05-07 01:39 | 18.79342 | -76.32508 | 26041 ft | 458 kts | 12° |
| 2026-05-07 01:39 | 18.82473 | -76.31804 | 26384 ft | 461 kts | 12° |
| 2026-05-07 01:40 | 18.85614 | -76.31098 | 26727 ft | 463 kts | 12° |
| 2026-05-07 01:40 | 18.88777 | -76.30387 | 27062 ft | 466 kts | 12° |
| 2026-05-07 01:40 | 18.91954 | -76.29672 | 27389 ft | 468 kts | 12° |
| 2026-05-07 01:40 | 18.95149 | -76.28953 | 27691 ft | 471 kts | 12° |
| 2026-05-07 01:41 | 18.98316 | -76.28240 | 28022 ft | 473 kts | 12° |
| 2026-05-07 01:41 | 19.01505 | -76.27372 | 28330 ft | 475 kts | 16° |
| 2026-05-07 01:41 | 19.04628 | -76.26189 | 28628 ft | 478 kts | 22° |
| 2026-05-07 01:41 | 19.07672 | -76.24755 | 28911 ft | 480 kts | 23° |
| 2026-05-07 01:42 | 19.10719 | -76.23296 | 29181 ft | 482 kts | 23° |
| 2026-05-07 01:42 | 19.13782 | -76.21832 | 29439 ft | 484 kts | 23° |
| 2026-05-07 01:42 | 19.16863 | -76.20368 | 29697 ft | 486 kts | 23° |
| 2026-05-07 01:42 | 19.19964 | -76.18903 | 29946 ft | 488 kts | 23° |
| 2026-05-07 01:43 | 19.23026 | -76.17463 | 30210 ft | 489 kts | 22° |
| 2026-05-07 01:43 | 19.26131 | -76.16007 | 30548 ft | 487 kts | 22° |
| 2026-05-07 01:43 | 19.29213 | -76.14561 | 30947 ft | 484 kts | 22° |
| 2026-05-07 01:43 | 19.32282 | -76.13121 | 31344 ft | 481 kts | 22° |
| 2026-05-07 01:44 | 19.35330 | -76.11690 | 31716 ft | 479 kts | 22° |
| 2026-05-07 01:44 | 19.38366 | -76.10263 | 32062 ft | 477 kts | 22° |
| 2026-05-07 01:44 | 19.41400 | -76.08837 | 32408 ft | 475 kts | 22° |
| 2026-05-07 01:44 | 19.44411 | -76.07421 | 32761 ft | 473 kts | 22° |
| 2026-05-07 01:45 | 19.47415 | -76.06007 | 32993 ft | 474 kts | 22° |
| 2026-05-07 01:45 | 19.53430 | -76.03175 | 33044 ft | 475 kts | 22° |
| 2026-05-07 01:46 | 19.59434 | -76.00345 | 33050 ft | 470 kts | 22° |
| 2026-05-07 01:46 | 19.65366 | -75.97555 | 33057 ft | 469 kts | 22° |
| 2026-05-07 01:47 | 19.71341 | -75.94753 | 33059 ft | 469 kts | 22° |
| 2026-05-07 01:47 | 19.77281 | -75.91963 | 33057 ft | 470 kts | 22° |
| 2026-05-07 01:48 | 19.83270 | -75.89147 | 33054 ft | 471 kts | 22° |
| 2026-05-07 01:48 | 19.89270 | -75.86321 | 33053 ft | 472 kts | 22° |
| 2026-05-07 01:49 | 19.95283 | -75.83488 | 33047 ft | 473 kts | 22° |
| 2026-05-07 01:49 | 20.01433 | -75.81052 | 33051 ft | 472 kts | 15° |
| 2026-05-07 01:50 | 20.07683 | -75.79084 | 33051 ft | 472 kts | 15° |
| 2026-05-07 01:50 | 20.13974 | -75.77104 | 33057 ft | 471 kts | 15° |
| 2026-05-07 01:51 | 20.20261 | -75.75098 | 33062 ft | 471 kts | 15° |
| 2026-05-07 01:51 | 20.26535 | -75.73081 | 33071 ft | 471 kts | 15° |
| 2026-05-07 01:52 | 20.32755 | -75.71078 | 33074 ft | 470 kts | 15° |
| 2026-05-07 01:52 | 20.39014 | -75.69061 | 33082 ft | 470 kts | 15° |
| 2026-05-07 01:53 | 20.45270 | -75.67045 | 33077 ft | 469 kts | 15° |
| 2026-05-07 01:53 | 20.51514 | -75.65030 | 33072 ft | 469 kts | 15° |
| 2026-05-07 01:54 | 20.57762 | -75.63013 | 33071 ft | 469 kts | 15° |
| 2026-05-07 01:54 | 20.63956 | -75.61011 | 33077 ft | 468 kts | 15° |
| 2026-05-07 01:55 | 20.70195 | -75.58993 | 33073 ft | 468 kts | 15° |
| 2026-05-07 01:55 | 20.76425 | -75.56977 | 33070 ft | 468 kts | 15° |
| 2026-05-07 01:56 | 20.82667 | -75.54954 | 33067 ft | 468 kts | 15° |
| 2026-05-07 01:56 | 20.88857 | -75.52947 | 33069 ft | 468 kts | 15° |
| 2026-05-07 01:57 | 20.95093 | -75.50923 | 33070 ft | 468 kts | 15° |
| 2026-05-07 01:57 | 21.01328 | -75.48898 | 33072 ft | 468 kts | 15° |
| 2026-05-07 01:58 | 21.07556 | -75.46873 | 33070 ft | 468 kts | 15° |
| 2026-05-07 01:58 | 21.13781 | -75.44847 | 33069 ft | 467 kts | 15° |
| 2026-05-07 01:59 | 21.19957 | -75.42835 | 33070 ft | 467 kts | 15° |
| 2026-05-07 01:59 | 21.26171 | -75.40809 | 33074 ft | 467 kts | 15° |
| 2026-05-07 02:00 | 21.32385 | -75.38781 | 33073 ft | 466 kts | 15° |
| 2026-05-07 02:00 | 21.38583 | -75.36759 | 33076 ft | 466 kts | 15° |
| 2026-05-07 02:01 | 21.44795 | -75.34740 | 33078 ft | 466 kts | 15° |
| 2026-05-07 02:01 | 21.50962 | -75.32734 | 33076 ft | 466 kts | 15° |
| 2026-05-07 02:02 | 21.57162 | -75.30714 | 33077 ft | 466 kts | 15° |
| 2026-05-07 02:02 | 21.63363 | -75.28691 | 33079 ft | 466 kts | 15° |
| 2026-05-07 02:03 | 21.69558 | -75.26668 | 33081 ft | 466 kts | 15° |
| 2026-05-07 02:03 | 21.75719 | -75.24654 | 33080 ft | 466 kts | 15° |
| 2026-05-07 02:04 | 21.81917 | -75.22627 | 33076 ft | 466 kts | 15° |
| 2026-05-07 02:04 | 21.88117 | -75.20597 | 33078 ft | 465 kts | 15° |
| 2026-05-07 02:05 | 21.94310 | -75.18566 | 33076 ft | 465 kts | 16° |
| 2026-05-07 02:05 | 22.00192 | -75.15638 | 33086 ft | 469 kts | 29° |
| 2026-05-07 02:06 | 22.05367 | -75.11402 | 33080 ft | 474 kts | 41° |
| 2026-05-07 02:06 | 22.10127 | -75.06493 | 33074 ft | 472 kts | 37° |
| 2026-05-07 02:07 | 22.15484 | -75.02468 | 33089 ft | 468 kts | 28° |
| 2026-05-07 02:07 | 22.23855 | -74.97106 | 33081 ft | 469 kts | 28° |
| 2026-05-07 02:08 | 22.29447 | -74.93472 | 33082 ft | 469 kts | 28° |
| 2026-05-07 02:08 | 22.35033 | -74.89819 | 33085 ft | 469 kts | 28° |
| 2026-05-07 02:09 | 22.40610 | -74.86166 | 33086 ft | 469 kts | 28° |
| 2026-05-07 02:09 | 22.46193 | -74.82508 | 33086 ft | 469 kts | 28° |
| 2026-05-07 02:10 | 22.51726 | -74.78880 | 33084 ft | 468 kts | 28° |
| 2026-05-07 02:10 | 22.57301 | -74.75222 | 33091 ft | 468 kts | 28° |
| 2026-05-07 02:11 | 22.62870 | -74.71563 | 33086 ft | 468 kts | 28° |
| 2026-05-07 02:11 | 22.68432 | -74.67903 | 33088 ft | 468 kts | 28° |
| 2026-05-07 02:12 | 22.73953 | -74.64257 | 33088 ft | 468 kts | 28° |
| 2026-05-07 02:12 | 22.79510 | -74.60582 | 33089 ft | 468 kts | 28° |
| 2026-05-07 02:13 | 22.85061 | -74.56908 | 33092 ft | 468 kts | 28° |
| 2026-05-07 02:13 | 22.90614 | -74.53229 | 33091 ft | 468 kts | 28° |
| 2026-05-07 02:14 | 22.96127 | -74.49574 | 33095 ft | 468 kts | 28° |
| 2026-05-07 02:14 | 23.01681 | -74.45887 | 33094 ft | 468 kts | 28° |
| 2026-05-07 02:15 | 23.07231 | -74.42200 | 33092 ft | 468 kts | 28° |
| 2026-05-07 02:15 | 23.12779 | -74.38509 | 33094 ft | 468 kts | 28° |
| 2026-05-07 02:16 | 23.18236 | -74.34876 | 33094 ft | 468 kts | 28° |
| 2026-05-07 02:16 | 23.23838 | -74.31148 | 33095 ft | 467 kts | 27° |
| 2026-05-07 02:17 | 23.29572 | -74.27867 | 33107 ft | 465 kts | 23° |
| 2026-05-07 02:17 | 23.35368 | -74.24746 | 33093 ft | 465 kts | 23° |
| 2026-05-07 02:18 | 23.41157 | -74.21608 | 33098 ft | 465 kts | 23° |
| 2026-05-07 02:18 | 23.46909 | -74.18465 | 33095 ft | 465 kts | 24° |
| 2026-05-07 02:19 | 23.52691 | -74.15297 | 33097 ft | 465 kts | 24° |
| 2026-05-07 02:19 | 23.58472 | -74.12126 | 33099 ft | 465 kts | 23° |
| 2026-05-07 02:20 | 23.64253 | -74.08954 | 33096 ft | 465 kts | 23° |
| 2026-05-07 02:20 | 23.70031 | -74.05780 | 33102 ft | 465 kts | 23° |
| 2026-05-07 02:21 | 23.75761 | -74.02629 | 33101 ft | 465 kts | 23° |
| 2026-05-07 02:21 | 23.81533 | -73.99444 | 33100 ft | 465 kts | 24° |
| 2026-05-07 02:22 | 23.87291 | -73.96233 | 33105 ft | 464 kts | 24° |
| 2026-05-07 02:22 | 23.93030 | -73.92978 | 33108 ft | 465 kts | 25° |
| 2026-05-07 02:23 | 23.98679 | -73.89632 | 33105 ft | 465 kts | 25° |
| 2026-05-07 02:23 | 24.04363 | -73.86251 | 33108 ft | 465 kts | 25° |
| 2026-05-07 02:24 | 24.10048 | -73.82884 | 33105 ft | 465 kts | 25° |
| 2026-05-07 02:24 | 24.15738 | -73.79521 | 33107 ft | 465 kts | 25° |
| 2026-05-07 02:25 | 24.21389 | -73.76177 | 33112 ft | 465 kts | 25° |
| 2026-05-07 02:25 | 24.27078 | -73.72808 | 33112 ft | 465 kts | 25° |
| 2026-05-07 02:26 | 24.32763 | -73.69437 | 33111 ft | 465 kts | 25° |
| 2026-05-07 02:26 | 24.38452 | -73.66059 | 33110 ft | 465 kts | 25° |
| 2026-05-07 02:27 | 24.44103 | -73.62701 | 33107 ft | 465 kts | 25° |
| 2026-05-07 02:27 | 24.49791 | -73.59317 | 33109 ft | 465 kts | 25° |
| 2026-05-07 02:28 | 24.55478 | -73.55930 | 33110 ft | 465 kts | 25° |
| 2026-05-07 02:28 | 24.61163 | -73.52543 | 33115 ft | 465 kts | 25° |
| 2026-05-07 02:29 | 24.66816 | -73.49174 | 33101 ft | 465 kts | 25° |
| 2026-05-07 02:29 | 24.72500 | -73.45781 | 33107 ft | 465 kts | 25° |
| 2026-05-07 02:30 | 24.78186 | -73.42382 | 33118 ft | 465 kts | 25° |
| 2026-05-07 02:30 | 24.83869 | -73.38982 | 33118 ft | 465 kts | 25° |
| 2026-05-07 02:31 | 24.89516 | -73.35599 | 33114 ft | 465 kts | 25° |
| 2026-05-07 02:31 | 24.95199 | -73.32192 | 33118 ft | 465 kts | 25° |
| 2026-05-07 02:32 | 25.00881 | -73.28781 | 33114 ft | 465 kts | 25° |
| 2026-05-07 02:32 | 25.06565 | -73.25365 | 33117 ft | 465 kts | 25° |
| 2026-05-07 02:33 | 25.12265 | -73.21984 | 33116 ft | 465 kts | 24° |
| 2026-05-07 02:33 | 25.17949 | -73.18687 | 33120 ft | 465 kts | 24° |
| 2026-05-07 02:34 | 25.23672 | -73.15368 | 33121 ft | 465 kts | 24° |
| 2026-05-07 02:34 | 25.29393 | -73.12034 | 33120 ft | 465 kts | 24° |
| 2026-05-07 02:35 | 25.35107 | -73.08695 | 33122 ft | 465 kts | 24° |
| 2026-05-07 02:35 | 25.40823 | -73.05350 | 33121 ft | 465 kts | 24° |
| 2026-05-07 02:36 | 25.46497 | -73.02026 | 33124 ft | 465 kts | 24° |
| 2026-05-07 02:36 | 25.52210 | -72.98676 | 33123 ft | 465 kts | 24° |
| 2026-05-07 02:37 | 25.57920 | -72.95323 | 33125 ft | 464 kts | 24° |
| 2026-05-07 02:37 | 25.63627 | -72.91970 | 33124 ft | 464 kts | 24° |
| 2026-05-07 02:38 | 25.69288 | -72.88639 | 33126 ft | 464 kts | 24° |
| 2026-05-07 02:38 | 25.74990 | -72.85281 | 33122 ft | 464 kts | 24° |
| 2026-05-07 02:39 | 25.80688 | -72.81922 | 33126 ft | 464 kts | 24° |
| 2026-05-07 02:39 | 25.86384 | -72.78560 | 33130 ft | 463 kts | 24° |
| 2026-05-07 02:40 | 25.92032 | -72.75222 | 33134 ft | 463 kts | 24° |
| 2026-05-07 02:40 | 25.97709 | -72.71864 | 33131 ft | 463 kts | 24° |
| 2026-05-07 02:41 | 26.03399 | -72.68494 | 33128 ft | 463 kts | 24° |
| 2026-05-07 02:41 | 26.09043 | -72.65148 | 33133 ft | 462 kts | 24° |
| 2026-05-07 02:42 | 26.14677 | -72.61805 | 33136 ft | 462 kts | 24° |
| 2026-05-07 02:42 | 26.20352 | -72.58433 | 33132 ft | 462 kts | 24° |
| 2026-05-07 02:43 | 26.26018 | -72.55063 | 33133 ft | 462 kts | 24° |
| 2026-05-07 02:43 | 26.31685 | -72.51688 | 33139 ft | 462 kts | 24° |
| 2026-05-07 02:44 | 26.37316 | -72.48332 | 33138 ft | 462 kts | 24° |
| 2026-05-07 02:44 | 26.42981 | -72.44951 | 33132 ft | 462 kts | 24° |
| 2026-05-07 02:45 | 26.48642 | -72.41568 | 33130 ft | 462 kts | 24° |
| 2026-05-07 02:45 | 26.54303 | -72.38182 | 33135 ft | 461 kts | 24° |
| 2026-05-07 02:46 | 26.59923 | -72.34816 | 33137 ft | 461 kts | 24° |
| 2026-05-07 02:46 | 26.65572 | -72.31430 | 33144 ft | 461 kts | 24° |
| 2026-05-07 02:47 | 26.71230 | -72.28034 | 33142 ft | 461 kts | 24° |
| 2026-05-07 02:47 | 26.76881 | -72.24639 | 33136 ft | 461 kts | 24° |
| 2026-05-07 02:48 | 26.82535 | -72.21238 | 33138 ft | 461 kts | 24° |
| 2026-05-07 02:48 | 26.88052 | -72.17915 | 33132 ft | 461 kts | 24° |
| 2026-05-07 02:49 | 26.93796 | -72.14452 | 33135 ft | 461 kts | 24° |
| 2026-05-07 02:49 | 26.99446 | -72.11042 | 33145 ft | 461 kts | 24° |
| 2026-05-07 02:50 | 27.05096 | -72.07627 | 33141 ft | 461 kts | 24° |
| 2026-05-07 02:50 | 27.10746 | -72.04209 | 33143 ft | 461 kts | 24° |
| 2026-05-07 02:51 | 27.16358 | -72.00810 | 33143 ft | 462 kts | 24° |
| 2026-05-07 02:51 | 27.22011 | -71.97382 | 33144 ft | 462 kts | 24° |
| 2026-05-07 02:52 | 27.27666 | -71.93949 | 33143 ft | 462 kts | 24° |
| 2026-05-07 02:52 | 27.33188 | -71.90592 | 33142 ft | 462 kts | 24° |
| 2026-05-07 02:53 | 27.38961 | -71.87079 | 33142 ft | 461 kts | 24° |
| 2026-05-07 02:53 | 27.44563 | -71.83666 | 33146 ft | 461 kts | 24° |
| 2026-05-07 02:54 | 27.50208 | -71.80223 | 33146 ft | 461 kts | 24° |
| 2026-05-07 02:54 | 27.55843 | -71.76781 | 33145 ft | 461 kts | 24° |
| 2026-05-07 02:55 | 27.61472 | -71.73340 | 33143 ft | 460 kts | 24° |
| 2026-05-07 02:55 | 27.67058 | -71.69921 | 33146 ft | 460 kts | 24° |
| 2026-05-07 02:56 | 27.72685 | -71.66473 | 33143 ft | 460 kts | 24° |
| 2026-05-07 02:56 | 27.78308 | -71.63023 | 33144 ft | 460 kts | 24° |
| 2026-05-07 02:57 | 27.83924 | -71.59573 | 33152 ft | 460 kts | 24° |
| 2026-05-07 02:57 | 27.89538 | -71.56120 | 33151 ft | 459 kts | 24° |
| 2026-05-07 02:58 | 27.95114 | -71.52687 | 33152 ft | 459 kts | 24° |
| 2026-05-07 02:58 | 28.00723 | -71.49230 | 33150 ft | 459 kts | 24° |
| 2026-05-07 02:59 | 28.06332 | -71.45768 | 33152 ft | 459 kts | 24° |
| 2026-05-07 02:59 | 28.11945 | -71.42299 | 33152 ft | 459 kts | 24° |
| 2026-05-07 03:00 | 28.17513 | -71.38854 | 33152 ft | 459 kts | 24° |
| 2026-05-07 03:00 | 28.23128 | -71.35377 | 33152 ft | 460 kts | 24° |
| 2026-05-07 03:01 | 28.28740 | -71.31896 | 33154 ft | 460 kts | 24° |
| 2026-05-07 03:01 | 28.34356 | -71.28408 | 33148 ft | 460 kts | 24° |
| 2026-05-07 03:02 | 28.39969 | -71.24919 | 33158 ft | 460 kts | 24° |
| 2026-05-07 03:02 | 28.45547 | -71.21447 | 33159 ft | 460 kts | 24° |
| 2026-05-07 03:03 | 28.51164 | -71.17946 | 33159 ft | 460 kts | 24° |
| 2026-05-07 03:03 | 28.56778 | -71.14443 | 33151 ft | 460 kts | 24° |
| 2026-05-07 03:04 | 28.62393 | -71.10934 | 33160 ft | 460 kts | 24° |
| 2026-05-07 03:04 | 28.67969 | -71.07446 | 33156 ft | 460 kts | 24° |
| 2026-05-07 03:05 | 28.73585 | -71.03928 | 33159 ft | 461 kts | 24° |
| 2026-05-07 03:05 | 28.79201 | -71.00406 | 33158 ft | 461 kts | 24° |
| 2026-05-07 03:06 | 28.84810 | -70.96873 | 33158 ft | 461 kts | 25° |
| 2026-05-07 03:06 | 28.90221 | -70.92956 | 33278 ft | 466 kts | 28° |
| 2026-05-07 03:07 | 28.92918 | -70.90924 | 33665 ft | 462 kts | 28° |
| 2026-05-07 03:07 | 28.95578 | -70.88908 | 34205 ft | 456 kts | 28° |
| 2026-05-07 03:07 | 28.98207 | -70.86919 | 34638 ft | 451 kts | 27° |
| 2026-05-07 03:07 | 29.00821 | -70.84947 | 34919 ft | 450 kts | 27° |
| 2026-05-07 03:08 | 29.03440 | -70.82978 | 35079 ft | 451 kts | 27° |
| 2026-05-07 03:08 | 29.06070 | -70.81006 | 35110 ft | 453 kts | 27° |
| 2026-05-07 03:08 | 29.11304 | -70.77080 | 35154 ft | 452 kts | 27° |